Time;durP1;ratioP1;P1;durP2;ratioP2;P2;SDS_P1;SDS_P2;PMS_P1;PMS_P2;Temp;Humidity;BMP_temperature;BMP_pressure;BME280_temperature;BME280_humidity;BME280_pressure;Samples;Min_cycle;Max_cycle;Signal;HPM_P1;HPM_P2
2023/06/06 00:00:10;;;;;;;;;;;;;;;22.62;63.28;98653.34;2080966;28;20030;-55
2023/06/06 00:01:11;;;;;;;;;;;;;;;22.63;63.33;98657.72;2079158;28;19924;-53
2023/06/06 00:02:13;;;;;;;;;;;;;;;22.61;63.37;98660.63;2081010;28;20040;-56
2023/06/06 00:03:15;;;;;;;;;;;;;;;22.60;63.59;98660.88;2079366;28;19935;-54
2023/06/06 00:04:15;;;;;;;;;;;;;;;22.60;63.44;98660.88;2080342;28;20387;-55
2023/06/06 00:05:17;;;;;;;;;;;;;;;22.60;63.39;98656.28;2078059;28;19974;-56
2023/06/06 00:06:20;;;;;;;;;;;;;;;22.61;63.47;98657.09;2077203;28;20463;-54
2023/06/06 00:07:22;;;;;;;;;;;;;;;22.60;63.43;98655.47;2078473;28;22126;-59
2023/06/06 00:08:23;;;;;;;;;;;;;;;22.59;63.39;98654.63;2077672;28;19935;-56
2023/06/06 00:09:25;;;;;;;;;;;;;;;22.61;63.45;98651.69;2079012;28;19924;-59
2023/06/06 00:10:26;;;;;;;;;;;;;;;22.60;63.42;98658.19;2080860;28;19974;-61
2023/06/06 00:11:28;;;;;;;;;;;;;;;22.60;63.66;98652.78;2081061;28;20367;-57
2023/06/06 00:12:32;;;;;;;;;;;;;;;22.59;63.45;98657.31;2080479;28;19928;-56
2023/06/06 00:13:34;;;;;;;;;;;;;;;22.60;63.54;98650.06;2078958;28;19928;-53
2023/06/06 00:14:35;;;;;;;;;;;;;;;22.62;63.49;98653.34;2084443;28;20015;-57
2023/06/06 00:15:38;;;;;;;;;;;;;;;22.62;63.58;98656.03;2084719;28;21644;-59
2023/06/06 00:16:39;;;;;;;;;;;;;;;22.61;63.57;98654.41;2080349;28;19942;-52
2023/06/06 00:17:42;;;;;;;;;;;;;;;22.60;63.59;98655.47;2077349;28;20555;-57
2023/06/06 00:18:45;;;;;;;;;;;;;;;22.59;63.34;98651.09;2080211;28;20366;-57
2023/06/06 00:19:47;;;;;;;;;;;;;;;22.60;63.48;98653.59;2078888;28;19920;-59
2023/06/06 00:20:48;;;;;;;;;;;;;;;22.60;63.49;98658.19;2081083;28;19997;-57
2023/06/06 00:21:50;;;;;;;;;;;;;;;22.59;63.54;98651.09;2078922;28;19924;-52
2023/06/06 00:22:53;;;;;;;;;;;;;;;22.58;63.51;98650.28;2080900;28;19928;-59
2023/06/06 00:23:55;;;;;;;;;;;;;;;22.59;63.78;98656.50;2077017;28;20976;-52
2023/06/06 00:24:55;;;;;;;;;;;;;;;22.59;63.50;98657.31;2077787;28;19928;-50
2023/06/06 00:25:56;;;;;;;;;;;;;;;22.60;63.60;98658.19;2080647;28;20432;-57
2023/06/06 00:26:57;;;;;;;;;;;;;;;22.59;63.61;98659.22;2080493;28;19977;-58
2023/06/06 00:27:58;;;;;;;;;;;;;;;22.60;63.61;98652.78;2077367;28;19932;-58
2023/06/06 00:28:59;;;;;;;;;;;;;;;22.60;63.58;98650.88;2082482;28;19935;-57
2023/06/06 00:30:01;;;;;;;;;;;;;;;22.59;63.53;98649.22;2082057;28;20416;-50
2023/06/06 00:31:01;;;;;;;;;;;;;;;22.57;63.72;98654.03;2083940;28;19968;-59
2023/06/06 00:32:02;;;;;;;;;;;;;;;22.57;63.62;98651.34;2078152;28;19928;-59
2023/06/06 00:33:04;;;;;;;;;;;;;;;22.56;63.73;98654.25;2077536;28;19932;-55
2023/06/06 00:34:06;;;;;;;;;;;;;;;22.57;63.57;98650.53;2079601;28;19936;-57
2023/06/06 00:35:07;;;;;;;;;;;;;;;22.57;63.69;98647.81;2080381;28;20052;-56
2023/06/06 00:36:08;;;;;;;;;;;;;;;22.57;63.54;98647.81;2075744;28;20572;-59
2023/06/06 00:37:09;;;;;;;;;;;;;;;22.58;63.54;98652.97;2083293;28;20995;-59
2023/06/06 00:38:10;;;;;;;;;;;;;;;22.57;63.83;98645.13;2082612;28;19979;-57
2023/06/06 00:39:11;;;;;;;;;;;;;;;22.57;63.54;98650.53;2083051;28;20027;-56
2023/06/06 00:40:13;;;;;;;;;;;;;;;22.57;63.73;98650.53;2084437;28;19932;-56
2023/06/06 00:41:14;;;;;;;;;;;;;;;22.57;63.39;98651.34;2079735;28;19928;-58
2023/06/06 00:42:15;;;;;;;;;;;;;;;22.58;63.54;98652.16;2085885;28;20611;-57
2023/06/06 00:43:15;;;;;;;;;;;;;;;22.59;63.57;98653.81;2083615;28;20427;-51
2023/06/06 00:44:18;;;;;;;;;;;;;;;22.57;63.65;98656.75;2079415;28;19997;-51
2023/06/06 00:45:18;;;;;;;;;;;;;;;22.58;63.68;98657.56;2081396;28;19935;-52
2023/06/06 00:46:20;;;;;;;;;;;;;;;22.58;63.36;98669.19;2081900;28;19928;-58
2023/06/06 00:47:21;;;;;;;;;;;;;;;22.58;63.54;98662.97;2080890;28;20577;-57
2023/06/06 00:48:24;;;;;;;;;;;;;;;22.58;63.53;98668.38;2084271;28;19928;-58
2023/06/06 00:49:26;;;;;;;;;;;;;;;22.57;63.45;98669.44;2086295;28;21170;-57
2023/06/06 00:50:28;;;;;;;;;;;;;;;22.58;63.68;98665.69;2085037;28;19921;-55
2023/06/06 00:51:28;;;;;;;;;;;;;;;22.58;63.45;98669.19;2086236;28;20040;-52
2023/06/06 00:52:30;;;;;;;;;;;;;;;22.57;63.53;98667.56;2086102;28;19932;-53
2023/06/06 00:53:31;;;;;;;;;;;;;;;22.57;63.50;98666.75;2087637;28;19935;-54
2023/06/06 00:54:34;;;;;;;;;;;;;;;22.58;63.53;98673.78;2089718;28;19955;-54
2023/06/06 00:55:36;;;;;;;;;;;;;;;22.58;63.48;98662.97;2090589;28;19942;-56
2023/06/06 00:56:38;;;;;;;;;;;;;;;22.57;63.43;98667.56;2086083;28;19935;-54
2023/06/06 00:57:39;;;;;;;;;;;;;;;22.57;63.42;98674.84;2086908;28;19929;-53
2023/06/06 00:58:41;;;;;;;;;;;;;;;22.58;63.51;98669.19;2083806;28;20461;-57
2023/06/06 00:59:43;;;;;;;;;;;;;;;22.56;63.44;98675.88;2087100;28;19987;-49
2023/06/06 01:00:45;;;;;;;;;;;;;;;22.56;63.47;98673.19;2087129;28;20056;-50
2023/06/06 01:01:47;;;;;;;;;;;;;;;22.56;63.56;98673.19;2087680;28;20057;-58
2023/06/06 01:02:49;;;;;;;;;;;;;;;22.56;63.45;98673.19;2088598;28;21256;-59
2023/06/06 01:03:51;;;;;;;;;;;;;;;22.55;63.42;98668.84;2090177;28;19928;-56
2023/06/06 01:04:52;;;;;;;;;;;;;;;22.54;63.50;98673.44;2089416;28;19924;-57
2023/06/06 01:05:53;;;;;;;;;;;;;;;22.53;63.36;98669.88;2088385;28;19973;-54
2023/06/06 01:06:55;;;;;;;;;;;;;;;22.55;63.40;98672.38;2089225;28;20496;-56
2023/06/06 01:07:56;;;;;;;;;;;;;;;22.55;63.54;98664.25;2085810;28;19928;-51
2023/06/06 01:08:57;;;;;;;;;;;;;;;22.55;63.50;98666.97;2087782;28;19971;-54
2023/06/06 01:09:58;;;;;;;;;;;;;;;22.55;63.41;98668.84;2087560;28;20499;-54
2023/06/06 01:11:06;;;;;;;;;;;;;;;22.55;63.57;98674.25;2088962;28;19921;-57
2023/06/06 01:12:11;;;;;;;;;;;;;;;22.54;63.41;98673.44;2087732;28;19935;-57
2023/06/06 01:13:18;;;;;;;;;;;;;;;22.56;63.34;98673.19;2088012;28;20037;-53
2023/06/06 01:14:21;;;;;;;;;;;;;;;22.54;63.42;98676.13;2086381;28;19932;-53
2023/06/06 01:15:25;;;;;;;;;;;;;;;22.53;63.52;98671.75;2088977;28;19956;-54
2023/06/06 01:16:26;;;;;;;;;;;;;;;22.53;63.58;98666.34;2082930;28;20329;-54
2023/06/06 01:17:28;;;;;;;;;;;;;;;22.53;63.36;98669.88;2088950;28;20429;-53
2023/06/06 01:18:31;;;;;;;;;;;;;;;22.53;63.43;98671.75;2088977;28;19946;-53
2023/06/06 01:19:35;;;;;;;;;;;;;;;22.54;63.63;98676.13;2087475;28;20024;-55
2023/06/06 01:20:36;;;;;;;;;;;;;;;22.52;63.41;98670.94;2088525;28;20024;-56
2023/06/06 01:21:41;;;;;;;;;;;;;;;22.54;63.76;98665.31;2088211;28;20349;-52
2023/06/06 01:22:43;;;;;;;;;;;;;;;22.53;63.54;98669.88;2088459;28;19955;-52
2023/06/06 01:23:45;;;;;;;;;;;;;;;22.53;63.32;98661.75;2087099;28;20438;-55
2023/06/06 01:24:49;;;;;;;;;;;;;;;22.51;63.65;98663.91;2086383;28;20394;-54
2023/06/06 01:25:51;;;;;;;;;;;;;;;22.53;63.57;98669.88;2087968;28;19935;-54
2023/06/06 01:26:51;;;;;;;;;;;;;;;22.52;63.59;98668.25;2087712;28;19963;-54
2023/06/06 01:27:55;;;;;;;;;;;;;;;22.51;63.62;98663.03;2086693;28;19920;-53
2023/06/06 01:28:55;;;;;;;;;;;;;;;22.51;63.53;98668.44;2091465;28;20009;-55
2023/06/06 01:29:57;;;;;;;;;;;;;;;22.53;63.65;98666.34;2088480;28;19932;-55
2023/06/06 01:30:58;;;;;;;;;;;;;;;22.53;63.58;98669.88;2079982;28;19972;-55
2023/06/06 01:32:03;;;;;;;;;;;;;;;22.52;63.63;98665.53;2082910;28;19928;-52
2023/06/06 01:33:06;;;;;;;;;;;;;;;22.52;63.52;98662.84;2081857;28;19924;-55
2023/06/06 01:34:09;;;;;;;;;;;;;;;22.52;63.60;98665.53;2077543;28;19966;-57
2023/06/06 01:35:15;;;;;;;;;;;;;;;22.52;63.57;98660.13;2080591;28;19924;-54
2023/06/06 01:36:22;;;;;;;;;;;;;;;22.52;63.72;98660.13;2081895;28;19929;-57
2023/06/06 01:37:31;;;;;;;;;;;;;;;22.50;63.60;98662.22;2087774;28;20003;-54
2023/06/06 01:38:34;;;;;;;;;;;;;;;22.52;63.52;98659.31;2087126;28;19928;-54
2023/06/06 01:39:37;;;;;;;;;;;;;;;22.51;63.45;98661.19;2088368;28;19936;-52
2023/06/06 01:40:39;;;;;;;;;;;;;;;22.52;63.54;98662.84;2081911;28;19929;-55
2023/06/06 01:41:41;;;;;;;;;;;;;;;22.51;63.45;98663.91;2086591;28;19977;-56
2023/06/06 01:42:43;;;;;;;;;;;;;;;22.50;63.57;98662.22;2075638;28;20015;-54
2023/06/06 01:43:45;;;;;;;;;;;;;;;22.51;63.55;98666.59;2081285;28;21911;-56
2023/06/06 01:44:49;;;;;;;;;;;;;;;22.50;63.68;98662.22;2079594;28;19960;-53
2023/06/06 01:45:51;;;;;;;;;;;;;;;22.49;63.48;98663.28;2082098;28;19925;-53
2023/06/06 01:46:53;;;;;;;;;;;;;;;22.49;63.52;98660.59;2079429;28;20697;-55
2023/06/06 01:47:55;;;;;;;;;;;;;;;22.50;63.52;98661.41;2086624;28;20587;-54
2023/06/06 01:48:56;;;;;;;;;;;;;;;22.50;63.64;98667.63;2076337;28;19928;-54
2023/06/06 01:49:58;;;;;;;;;;;;;;;22.51;63.50;98657.63;2080709;28;19920;-54
2023/06/06 01:50:59;;;;;;;;;;;;;;;22.52;63.60;98662.84;2081944;28;20031;-54
2023/06/06 01:52:00;;;;;;;;;;;;;;;22.48;63.52;98664.34;2079877;28;20502;-55
2023/06/06 01:53:02;;;;;;;;;;;;;;;22.51;63.59;98663.91;2079116;28;19966;-56
2023/06/06 01:54:04;;;;;;;;;;;;;;;22.49;63.72;98663.28;2082799;28;19929;-52
2023/06/06 01:55:05;;;;;;;;;;;;;;;22.51;63.61;98665.75;2076677;28;20023;-55
2023/06/06 01:56:12;;;;;;;;;;;;;;;22.51;63.68;98665.75;2080529;28;19920;-54
2023/06/06 01:57:12;;;;;;;;;;;;;;;22.49;63.64;98660.59;2078795;28;20904;-54
2023/06/06 01:58:15;;;;;;;;;;;;;;;22.48;63.75;98663.50;2080372;28;19936;-54
2023/06/06 01:59:15;;;;;;;;;;;;;;;22.48;63.54;98658.09;2081257;28;19971;-54
2023/06/06 02:00:17;;;;;;;;;;;;;;;22.48;63.64;98658.09;2082131;28;20481;-55
2023/06/06 02:01:18;;;;;;;;;;;;;;;22.49;63.60;98654.38;2067441;28;23380;-57
2023/06/06 02:02:19;;;;;;;;;;;;;;;22.49;63.54;98660.59;2076415;28;20412;-56
2023/06/06 02:03:20;;;;;;;;;;;;;;;22.49;63.63;98655.19;2083284;28;19920;-57
2023/06/06 02:04:22;;;;;;;;;;;;;;;22.49;63.75;98655.19;2080080;28;19931;-55
2023/06/06 02:05:23;;;;;;;;;;;;;;;22.48;63.60;98648.13;2081740;28;19982;-57
2023/06/06 02:06:24;;;;;;;;;;;;;;;22.49;63.63;98652.47;2080132;28;20337;-56
2023/06/06 02:07:25;;;;;;;;;;;;;;;22.48;63.64;98650.84;2078085;28;20118;-56
2023/06/06 02:08:28;;;;;;;;;;;;;;;22.47;63.69;98651.06;2080912;28;19925;-56
2023/06/06 02:09:29;;;;;;;;;;;;;;;22.48;63.66;98644.59;2081675;28;19943;-57
2023/06/06 02:10:30;;;;;;;;;;;;;;;22.48;63.79;98647.28;2082134;28;19931;-55
2023/06/06 02:11:31;;;;;;;;;;;;;;;22.49;63.72;98646.25;2083876;28;19928;-54
2023/06/06 02:12:33;;;;;;;;;;;;;;;22.49;63.71;98644.38;2079678;28;19924;-55
2023/06/06 02:13:33;;;;;;;;;;;;;;;22.48;63.72;98642.72;2078419;28;20565;-55
2023/06/06 02:14:35;;;;;;;;;;;;;;;22.49;63.72;98638.97;2080796;28;19925;-55
2023/06/06 02:15:35;;;;;;;;;;;;;;;22.48;63.49;98637.31;2081062;28;19982;-56
2023/06/06 02:16:37;;;;;;;;;;;;;;;22.48;63.72;98641.88;2079370;28;19950;-55
2023/06/06 02:17:37;;;;;;;;;;;;;;;22.48;63.73;98642.72;2081701;28;20494;-54
2023/06/06 02:18:44;;;;;;;;;;;;;;;22.46;63.63;98639.44;2083067;28;19920;-55
2023/06/06 02:19:44;;;;;;;;;;;;;;;22.46;63.64;98641.31;2074495;28;19929;-54
2023/06/06 02:20:46;;;;;;;;;;;;;;;22.47;63.54;98641.06;2079846;28;20610;-56
2023/06/06 02:21:48;;;;;;;;;;;;;;;22.45;63.88;98637.75;2078495;28;20416;-55
2023/06/06 02:22:49;;;;;;;;;;;;;;;22.47;63.66;98645.66;2080937;28;19928;-53
2023/06/06 02:23:51;;;;;;;;;;;;;;;22.48;63.73;98641.88;2082009;28;20347;-55
2023/06/06 02:24:54;;;;;;;;;;;;;;;22.48;63.66;98650.00;2077918;28;21116;-55
2023/06/06 02:25:55;;;;;;;;;;;;;;;22.47;63.64;98638.38;2074899;28;19931;-54
2023/06/06 02:26:57;;;;;;;;;;;;;;;22.47;63.62;98635.66;2079182;28;20042;-57
2023/06/06 02:27:57;;;;;;;;;;;;;;;22.47;63.80;98646.47;2079070;28;20325;-55
2023/06/06 02:28:59;;;;;;;;;;;;;;;22.47;63.45;98635.66;2081208;28;19924;-55
2023/06/06 02:29:59;;;;;;;;;;;;;;;22.47;63.62;98635.66;2079492;28;20317;-55
2023/06/06 02:31:02;;;;;;;;;;;;;;;22.48;63.70;98642.72;2082122;28;19928;-55
2023/06/06 02:32:03;;;;;;;;;;;;;;;22.48;63.52;98641.88;2076581;28;19924;-56
2023/06/06 02:33:06;;;;;;;;;;;;;;;22.47;63.65;98642.94;2075853;28;19924;-56
2023/06/06 02:34:06;;;;;;;;;;;;;;;22.46;63.60;98639.44;2082661;28;19928;-55
2023/06/06 02:35:08;;;;;;;;;;;;;;;22.45;63.63;98637.75;2078810;28;19935;-55
2023/06/06 02:36:09;;;;;;;;;;;;;;;22.46;63.66;98644.00;2080157;28;19963;-56
2023/06/06 02:37:10;;;;;;;;;;;;;;;22.46;63.73;98634.03;2080253;28;19928;-54
2023/06/06 02:38:11;;;;;;;;;;;;;;;22.46;63.86;98644.00;2077021;28;19921;-55
2023/06/06 02:39:14;;;;;;;;;;;;;;;22.46;63.66;98641.31;2081483;28;19924;-54
2023/06/06 02:40:15;;;;;;;;;;;;;;;22.45;63.74;98648.56;2086254;28;19936;-55
2023/06/06 02:41:16;;;;;;;;;;;;;;;22.45;63.69;98647.75;2086220;28;19920;-55
2023/06/06 02:42:17;;;;;;;;;;;;;;;22.44;63.69;98640.72;2083420;28;20027;-56
2023/06/06 02:43:18;;;;;;;;;;;;;;;22.43;63.69;98639.06;2086647;28;20379;-56
2023/06/06 02:44:19;;;;;;;;;;;;;;;22.43;63.66;98639.88;2082730;28;20003;-57
2023/06/06 02:45:22;;;;;;;;;;;;;;;22.43;63.60;98645.28;2087976;28;19927;-55
2023/06/06 02:46:23;;;;;;;;;;;;;;;22.45;63.82;98640.47;2087818;28;19928;-57
2023/06/06 02:47:24;;;;;;;;;;;;;;;22.45;63.88;98639.63;2088846;28;19970;-54
2023/06/06 02:48:25;;;;;;;;;;;;;;;22.46;63.65;98642.13;2086477;28;19928;-54
2023/06/06 02:49:27;;;;;;;;;;;;;;;22.45;63.85;98645.88;2088554;28;20390;-54
2023/06/06 02:50:28;;;;;;;;;;;;;;;22.46;63.57;98646.72;2086435;28;19924;-54
2023/06/06 02:51:30;;;;;;;;;;;;;;;22.46;63.43;98646.72;2084874;28;19940;-57
2023/06/06 02:52:31;;;;;;;;;;;;;;;22.46;63.67;98644.84;2084197;28;19937;-54
2023/06/06 02:53:33;;;;;;;;;;;;;;;22.46;63.87;98650.25;2086397;28;20275;-56
2023/06/06 02:54:35;;;;;;;;;;;;;;;22.45;63.91;98653.16;2085441;28;19958;-55
2023/06/06 02:55:36;;;;;;;;;;;;;;;22.47;63.61;98648.34;2085146;28;19929;-54
2023/06/06 02:56:37;;;;;;;;;;;;;;;22.45;63.64;98651.28;2084791;28;20020;-53
2023/06/06 02:57:38;;;;;;;;;;;;;;;22.46;63.65;98652.13;2084837;28;19931;-53
2023/06/06 02:58:39;;;;;;;;;;;;;;;22.46;63.68;98649.41;2085467;28;19925;-54
2023/06/06 02:59:40;;;;;;;;;;;;;;;22.45;63.73;98642.34;2082828;28;19925;-54
2023/06/06 03:00:41;;;;;;;;;;;;;;;22.43;63.54;98648.00;2086826;28;20362;-56
2023/06/06 03:01:44;;;;;;;;;;;;;;;22.41;63.56;98644.69;2086933;28;19927;-54
2023/06/06 03:02:44;;;;;;;;;;;;;;;22.42;63.72;98645.50;2083132;28;19928;-54
2023/06/06 03:03:46;;;;;;;;;;;;;;;22.43;63.70;98648.00;2084394;28;20268;-55
2023/06/06 03:04:46;;;;;;;;;;;;;;;22.43;63.61;98649.88;2079251;28;20492;-54
2023/06/06 03:05:51;;;;;;;;;;;;;;;22.43;63.67;98644.47;2084500;28;19920;-55
2023/06/06 03:06:51;;;;;;;;;;;;;;;22.43;63.67;98641.78;2083566;28;20810;-55
2023/06/06 03:07:53;;;;;;;;;;;;;;;22.43;63.50;98636.38;2082785;28;19921;-55
2023/06/06 03:08:55;;;;;;;;;;;;;;;22.41;63.66;98641.97;2083815;28;20442;-56
2023/06/06 03:09:58;;;;;;;;;;;;;;;22.42;63.67;98637.41;2083710;28;20707;-54
2023/06/06 03:10:59;;;;;;;;;;;;;;;22.42;63.74;98640.91;2078894;28;20047;-55
2023/06/06 03:12:00;;;;;;;;;;;;;;;22.42;63.67;98640.91;2082306;28;19935;-56
2023/06/06 03:13:01;;;;;;;;;;;;;;;22.41;63.77;98641.97;2086737;28;20697;-55
2023/06/06 03:14:02;;;;;;;;;;;;;;;22.42;63.72;98638.22;2087078;28;19929;-55
2023/06/06 03:15:03;;;;;;;;;;;;;;;22.42;63.50;98635.50;2084381;28;19920;-54
2023/06/06 03:16:05;;;;;;;;;;;;;;;22.42;63.61;98640.91;2084851;28;19978;-53
2023/06/06 03:17:07;;;;;;;;;;;;;;;22.41;63.79;98639.28;2079369;28;19933;-55
2023/06/06 03:18:11;;;;;;;;;;;;;;;22.43;63.67;98639.06;2085279;28;20382;-54
2023/06/06 03:19:12;;;;;;;;;;;;;;;22.40;63.73;98640.34;2085186;28;20038;-54
2023/06/06 03:20:15;;;;;;;;;;;;;;;22.42;63.54;98638.22;2084642;28;19931;-55
2023/06/06 03:21:17;;;;;;;;;;;;;;;22.40;63.63;98640.34;2084977;28;19931;-54
2023/06/06 03:22:19;;;;;;;;;;;;;;;22.42;63.61;98643.63;2087034;28;19921;-55
2023/06/06 03:23:19;;;;;;;;;;;;;;;22.40;63.79;98640.34;2081481;28;20000;-55
2023/06/06 03:24:21;;;;;;;;;;;;;;;22.41;63.64;98641.97;2084985;28;21010;-55
2023/06/06 03:25:25;;;;;;;;;;;;;;;22.41;63.61;98638.47;2083724;28;20071;-52
2023/06/06 03:26:27;;;;;;;;;;;;;;;22.41;63.64;98636.59;2083416;28;19929;-55
2023/06/06 03:27:28;;;;;;;;;;;;;;;22.39;63.89;98635.97;2085287;28;19924;-55
2023/06/06 03:28:31;;;;;;;;;;;;;;;22.39;63.76;98633.28;2084152;28;19986;-53
2023/06/06 03:29:33;;;;;;;;;;;;;;;22.40;63.72;98634.09;2085908;28;20762;-54
2023/06/06 03:30:33;;;;;;;;;;;;;;;22.39;63.70;98644.09;2082530;28;19962;-53
2023/06/06 03:31:35;;;;;;;;;;;;;;;22.38;63.71;98642.44;2085880;28;19928;-54
2023/06/06 03:32:35;;;;;;;;;;;;;;;22.40;63.58;98645.75;2083624;28;20023;-54
2023/06/06 03:33:37;;;;;;;;;;;;;;;22.41;63.68;98639.28;2085573;28;21067;-55
2023/06/06 03:34:39;;;;;;;;;;;;;;;22.40;63.60;98640.34;2084288;28;20103;-55
2023/06/06 03:35:40;;;;;;;;;;;;;;;22.40;63.58;98645.75;2084711;28;20322;-54
2023/06/06 03:36:42;;;;;;;;;;;;;;;22.39;63.78;98649.50;2074326;28;20054;-54
2023/06/06 03:37:42;;;;;;;;;;;;;;;22.38;63.81;98645.16;2080514;28;19928;-54
2023/06/06 03:38:44;;;;;;;;;;;;;;;22.39;63.51;98646.78;2080885;28;19935;-54
2023/06/06 03:39:44;;;;;;;;;;;;;;;22.40;63.64;98645.75;2079125;28;19928;-55
2023/06/06 03:40:47;;;;;;;;;;;;;;;22.40;63.78;98655.72;2077818;28;19928;-54
2023/06/06 03:41:48;;;;;;;;;;;;;;;22.40;63.64;98644.91;2079877;28;19932;-54
2023/06/06 03:42:50;;;;;;;;;;;;;;;22.40;63.78;98653.00;2071749;28;19928;-55
2023/06/06 03:43:50;;;;;;;;;;;;;;;22.40;63.63;98650.31;2080961;28;19936;-55
2023/06/06 03:44:52;;;;;;;;;;;;;;;22.41;63.60;98651.97;2075640;28;21078;-54
2023/06/06 03:45:52;;;;;;;;;;;;;;;22.41;63.61;98655.50;2079054;28;20055;-54
2023/06/06 03:46:53;;;;;;;;;;;;;;;22.39;63.82;98649.50;2078426;28;20294;-54
2023/06/06 03:47:54;;;;;;;;;;;;;;;22.40;63.76;98656.56;2079812;28;20009;-54
2023/06/06 03:48:56;;;;;;;;;;;;;;;22.38;63.57;98658.66;2076058;28;19924;-55
2023/06/06 03:49:56;;;;;;;;;;;;;;;22.38;63.68;98657.84;2078303;28;19928;-55
2023/06/06 03:50:58;;;;;;;;;;;;;;;22.38;63.56;98657.84;2079103;28;19947;-55
2023/06/06 03:51:58;;;;;;;;;;;;;;;22.38;63.72;98658.66;2085721;28;19950;-53
2023/06/06 03:53:00;;;;;;;;;;;;;;;22.38;63.53;98664.06;2080565;28;19954;-55
2023/06/06 03:54:01;;;;;;;;;;;;;;;22.38;63.67;98658.66;2079373;28;20377;-56
2023/06/06 03:55:02;;;;;;;;;;;;;;;22.38;63.72;98664.06;2076706;28;19920;-56
2023/06/06 03:56:05;;;;;;;;;;;;;;;22.37;63.73;98657.03;2078412;28;19928;-56
2023/06/06 03:57:08;;;;;;;;;;;;;;;22.37;63.67;98659.72;2078881;28;19924;-55
2023/06/06 03:58:08;;;;;;;;;;;;;;;22.40;63.55;98655.72;2079954;28;19971;-55
2023/06/06 03:59:12;;;;;;;;;;;;;;;22.36;63.53;98655.34;2078981;28;19920;-56
2023/06/06 04:00:14;;;;;;;;;;;;;;;22.40;63.58;98656.56;2079645;28;20036;-55
2023/06/06 04:01:15;;;;;;;;;;;;;;;22.38;63.66;98655.13;2074701;28;19931;-54
2023/06/06 04:02:17;;;;;;;;;;;;;;;22.37;63.73;98657.03;2078097;28;19927;-55
2023/06/06 04:03:18;;;;;;;;;;;;;;;22.37;63.82;98648.06;2079419;28;19928;-54
2023/06/06 04:04:19;;;;;;;;;;;;;;;22.38;63.59;98655.97;2078752;28;20000;-55
2023/06/06 04:05:20;;;;;;;;;;;;;;;22.37;63.60;98650.75;2078270;28;20393;-56
2023/06/06 04:06:21;;;;;;;;;;;;;;;22.35;63.61;98656.41;2079806;28;20027;-55
2023/06/06 04:07:25;;;;;;;;;;;;;;;22.35;63.68;98647.50;2081179;28;19928;-55
2023/06/06 04:08:26;;;;;;;;;;;;;;;22.36;63.69;98654.53;2079449;28;19925;-55
2023/06/06 04:09:27;;;;;;;;;;;;;;;22.36;63.57;98659.94;2078947;28;20003;-55
2023/06/06 04:10:28;;;;;;;;;;;;;;;22.35;63.77;98652.91;2079947;28;19924;-54
2023/06/06 04:11:30;;;;;;;;;;;;;;;22.34;63.64;98662.03;2084470;28;19934;-54
2023/06/06 04:12:31;;;;;;;;;;;;;;;22.34;63.60;98654.75;2080593;28;19981;-54
2023/06/06 04:13:32;;;;;;;;;;;;;;;22.35;63.82;98658.28;2073783;28;19990;-54
2023/06/06 04:14:33;;;;;;;;;;;;;;;22.35;63.62;98653.72;2081215;28;19925;-53
2023/06/06 04:15:35;;;;;;;;;;;;;;;22.34;63.87;98657.44;2081077;28;20816;-56
2023/06/06 04:16:36;;;;;;;;;;;;;;;22.35;63.73;98656.41;2077544;28;19929;-55
2023/06/06 04:17:37;;;;;;;;;;;;;;;22.35;63.69;98652.91;2080234;28;19968;-55
2023/06/06 04:18:37;;;;;;;;;;;;;;;22.36;63.58;98655.34;2080129;28;19920;-55
2023/06/06 04:19:39;;;;;;;;;;;;;;;22.34;63.67;98657.44;2077046;28;20425;-55
2023/06/06 04:20:39;;;;;;;;;;;;;;;22.34;63.50;98662.84;2080649;28;19981;-55
2023/06/06 04:21:41;;;;;;;;;;;;;;;22.34;63.78;98657.44;2078300;28;19994;-55
2023/06/06 04:22:43;;;;;;;;;;;;;;;22.33;63.72;98657.69;2080734;28;19925;-56
2023/06/06 04:23:45;;;;;;;;;;;;;;;22.34;63.70;98657.44;2081648;28;20440;-56
2023/06/06 04:24:46;;;;;;;;;;;;;;;22.35;63.60;98661.81;2080592;28;19928;-56
2023/06/06 04:25:48;;;;;;;;;;;;;;;22.34;63.83;98662.03;2080970;28;20019;-54
2023/06/06 04:26:50;;;;;;;;;;;;;;;22.32;63.82;98654.16;2078942;28;20725;-55
2023/06/06 04:27:52;;;;;;;;;;;;;;;22.32;63.55;98662.28;2080713;28;19931;-55
2023/06/06 04:28:53;;;;;;;;;;;;;;;22.35;63.71;98661.00;2084215;28;19920;-55
2023/06/06 04:29:57;;;;;;;;;;;;;;;22.35;63.51;98659.13;2079361;28;19928;-54
2023/06/06 04:30:59;;;;;;;;;;;;;;;22.35;63.50;98659.13;2081703;28;20355;-56
2023/06/06 04:32:01;;;;;;;;;;;;;;;22.36;63.66;98665.34;2077859;28;20481;-55
2023/06/06 04:33:02;;;;;;;;;;;;;;;22.35;63.76;98666.41;2081940;28;19931;-56
2023/06/06 04:34:04;;;;;;;;;;;;;;;22.33;63.70;98665.78;2085249;28;20405;-55
2023/06/06 04:35:06;;;;;;;;;;;;;;;22.32;63.63;98667.69;2080954;28;19928;-55
2023/06/06 04:36:07;;;;;;;;;;;;;;;22.33;63.67;98668.50;2079500;28;20732;-56
2023/06/06 04:37:08;;;;;;;;;;;;;;;22.34;63.44;98668.25;2078914;28;21101;-56
2023/06/06 04:38:10;;;;;;;;;;;;;;;22.32;63.95;98670.38;2079950;28;19936;-56
2023/06/06 04:39:12;;;;;;;;;;;;;;;22.32;63.79;98667.69;2088345;28;19920;-56
2023/06/06 04:40:15;;;;;;;;;;;;;;;22.34;63.67;98668.25;2085732;28;19936;-56
2023/06/06 04:41:16;;;;;;;;;;;;;;;22.35;63.58;98666.41;2082517;28;20446;-56
2023/06/06 04:42:19;;;;;;;;;;;;;;;22.34;63.56;98662.84;2087632;28;19936;-55
2023/06/06 04:43:23;;;;;;;;;;;;;;;22.33;63.76;98666.63;2083733;28;20382;-56
2023/06/06 04:44:25;;;;;;;;;;;;;;;22.34;63.50;98664.72;2076075;28;19929;-59
2023/06/06 04:45:26;;;;;;;;;;;;;;;22.33;63.54;98665.78;2078628;28;19928;-56
2023/06/06 04:46:29;;;;;;;;;;;;;;;22.33;63.73;98661.22;2080346;28;19936;-55
2023/06/06 04:47:29;;;;;;;;;;;;;;;22.35;63.69;98667.22;2081484;28;19956;-55
2023/06/06 04:48:31;;;;;;;;;;;;;;;22.35;63.54;98669.09;2085844;28;19931;-55
2023/06/06 04:49:35;;;;;;;;;;;;;;;22.34;63.70;98676.34;2086800;28;20375;-54
2023/06/06 04:50:37;;;;;;;;;;;;;;;22.32;63.53;98664.97;2085312;28;21300;-56
2023/06/06 04:51:40;;;;;;;;;;;;;;;22.33;63.59;98672.03;2085962;28;19920;-55
2023/06/06 04:52:41;;;;;;;;;;;;;;;22.34;63.52;98667.44;2087125;28;19928;-57
2023/06/06 04:53:42;;;;;;;;;;;;;;;22.33;63.72;98671.19;2089148;28;19964;-54
2023/06/06 04:54:45;;;;;;;;;;;;;;;22.32;63.70;98675.78;2088853;28;19924;-56
2023/06/06 04:55:47;;;;;;;;;;;;;;;22.33;63.68;98677.44;2088494;28;20007;-56
2023/06/06 04:56:51;;;;;;;;;;;;;;;22.32;63.53;98670.38;2085913;28;19920;-56
2023/06/06 04:57:55;;;;;;;;;;;;;;;22.31;63.62;98668.72;2087626;28;19920;-57
2023/06/06 04:58:57;;;;;;;;;;;;;;;22.31;63.53;98668.72;2089176;28;19968;-57
2023/06/06 04:59:57;;;;;;;;;;;;;;;22.31;63.69;98660.59;2089301;28;19927;-54
2023/06/06 05:00:58;;;;;;;;;;;;;;;22.33;63.67;98660.38;2088598;28;19927;-55
2023/06/06 05:02:01;;;;;;;;;;;;;;;22.32;63.65;98662.28;2087430;28;20488;-53
2023/06/06 05:03:03;;;;;;;;;;;;;;;22.30;63.65;98661.66;2082339;28;21872;-53
2023/06/06 05:04:03;;;;;;;;;;;;;;;22.31;63.82;98657.91;2088319;28;19920;-55
2023/06/06 05:05:07;;;;;;;;;;;;;;;22.32;63.49;98664.97;2086468;28;20362;-55
2023/06/06 05:06:08;;;;;;;;;;;;;;;22.32;63.54;98669.56;2087760;28;19953;-54
2023/06/06 05:07:09;;;;;;;;;;;;;;;22.30;63.72;98658.97;2088821;28;19920;-54
2023/06/06 05:08:10;;;;;;;;;;;;;;;22.32;63.68;98664.97;2088098;28;20774;-54
2023/06/06 05:09:12;;;;;;;;;;;;;;;22.33;63.60;98663.09;2085120;28;19936;-55
2023/06/06 05:10:15;;;;;;;;;;;;;;;22.29;63.97;98665.44;2086816;28;20456;-54
2023/06/06 05:11:17;;;;;;;;;;;;;;;22.29;63.67;98665.44;2087454;28;19921;-54
2023/06/06 05:12:19;;;;;;;;;;;;;;;22.29;63.66;98657.31;2088219;28;19955;-55
2023/06/06 05:13:21;;;;;;;;;;;;;;;22.29;63.60;98666.25;2087988;28;19959;-54
2023/06/06 05:14:23;;;;;;;;;;;;;;;22.31;63.54;98671.41;2087774;28;20446;-53
2023/06/06 05:15:24;;;;;;;;;;;;;;;22.31;63.67;98666.00;2085098;28;19989;-60
2023/06/06 05:16:25;;;;;;;;;;;;;;;22.31;63.93;98663.31;2089422;28;19986;-54
2023/06/06 05:17:27;;;;;;;;;;;;;;;22.30;63.75;98667.88;2088804;28;19928;-56
2023/06/06 05:18:30;;;;;;;;;;;;;;;22.30;63.80;98667.88;2087704;28;19925;-55
2023/06/06 05:19:30;;;;;;;;;;;;;;;22.29;63.63;98663.56;2089993;28;19935;-54
2023/06/06 05:20:32;;;;;;;;;;;;;;;22.30;63.72;98661.66;2086477;28;20836;-54
2023/06/06 05:21:33;;;;;;;;;;;;;;;22.31;63.62;98663.31;2085413;28;19924;-55